createdAt,value
2023-04-21T00:02:20.679Z,46.83
2023-04-21T00:04:49.735Z,45.63
2023-04-21T00:07:17.175Z,53.63
2023-04-21T00:09:44.334Z,44.63
2023-04-21T00:12:11.472Z,43.60
2023-04-21T00:14:40.029Z,41.83
2023-04-21T00:17:07.223Z,41.93
2023-04-21T00:19:35.289Z,40.10
2023-04-21T00:22:04.379Z,36.40
2023-04-21T00:24:31.564Z,68.60
2023-04-21T00:26:58.699Z,52.87
2023-04-21T00:29:25.873Z,48.93
2023-04-21T00:31:53.321Z,57.00
2023-04-21T00:34:20.636Z,54.27
2023-04-21T00:36:47.748Z,54.03
2023-04-21T00:39:14.906Z,46.57
2023-04-21T00:41:42.027Z,52.63
2023-04-21T00:44:09.345Z,46.37
2023-04-21T00:46:37.105Z,51.27
2023-04-21T00:49:05.083Z,49.23
2023-04-21T00:51:33.064Z,44.13
2023-04-21T00:54:00.303Z,47.17
2023-04-21T00:56:27.418Z,48.33
2023-04-21T00:58:54.548Z,40.47
2023-04-21T01:01:22.195Z,41.50
2023-04-21T01:03:50.285Z,38.77
2023-04-21T01:06:17.920Z,46.53
2023-04-21T01:08:46.670Z,46.90
2023-04-21T01:11:14.071Z,54.58
2023-04-21T01:13:41.284Z,72.33
2023-04-21T01:16:08.542Z,65.33
2023-04-21T01:18:36.945Z,60.80
2023-04-21T01:21:04.601Z,58.17
2023-04-21T01:23:31.777Z,56.77
2023-04-21T01:25:59.060Z,50.93
2023-04-21T01:28:26.483Z,61.37
2023-04-21T01:30:53.708Z,52.70
2023-04-21T01:33:20.900Z,49.27
2023-04-21T01:35:48.269Z,49.83
2023-04-21T01:38:19.508Z,49.70
2023-04-21T01:40:48.325Z,40.73
2023-04-21T01:43:15.933Z,39.33
2023-04-21T01:45:43.124Z,37.07
2023-04-21T01:48:10.632Z,45.43
2023-04-21T01:50:37.778Z,46.33
2023-04-21T01:53:04.918Z,60.13
2023-04-21T01:55:32.044Z,72.10
2023-04-21T01:57:59.542Z,57.80
2023-04-21T02:00:27.062Z,62.73
2023-04-21T02:02:54.318Z,51.30
2023-04-21T02:05:21.468Z,49.67
2023-04-21T02:07:48.682Z,49.67
2023-04-21T02:10:16.156Z,52.77
2023-04-21T02:12:43.341Z,55.13
2023-04-21T02:15:10.833Z,50.70
2023-04-21T02:17:38.324Z,46.73
2023-04-21T02:20:06.955Z,48.20
2023-04-21T02:22:34.093Z,42.20
2023-04-21T02:25:01.204Z,37.63
2023-04-21T02:27:28.355Z,38.60
2023-04-21T02:29:55.656Z,37.37
2023-04-21T02:32:25.791Z,31.57
2023-04-21T02:34:53.282Z,34.23
2023-04-21T02:37:21.068Z,46.37
2023-04-21T02:39:48.263Z,74.77
2023-04-21T02:42:15.367Z,65.20
2023-04-21T02:44:43.128Z,59.37
2023-04-21T02:47:10.557Z,58.30
2023-04-21T02:49:41.370Z,57.63
2023-04-21T02:52:08.531Z,54.70
2023-04-21T02:54:35.672Z,49.87
2023-04-21T02:57:03.265Z,56.17
2023-04-21T02:59:30.379Z,53.30
2023-04-21T03:01:57.494Z,50.67
2023-04-21T03:04:25.485Z,52.10
2023-04-21T03:06:53.188Z,42.13
2023-04-21T03:09:20.894Z,41.93
2023-04-21T03:11:48.153Z,43.63
2023-04-21T03:14:15.412Z,51.73
2023-04-21T03:16:42.588Z,44.87
2023-04-21T03:19:09.763Z,43.57
2023-04-21T03:21:40.093Z,41.60
2023-04-21T03:24:07.682Z,35.50
2023-04-21T03:26:34.829Z,33.83
2023-04-21T03:29:02.233Z,32.33
2023-04-21T03:31:29.435Z,34.97
2023-04-21T03:33:56.571Z,34.57
2023-04-21T03:36:23.718Z,30.83
2023-04-21T03:38:50.862Z,33.87
2023-04-21T03:41:18.074Z,28.13
2023-04-21T03:43:45.230Z,30.80
2023-04-21T03:46:22.007Z,30.57
2023-04-21T03:48:49.208Z,33.00
2023-04-21T03:51:16.347Z,29.73
2023-04-21T03:53:43.512Z,33.40
2023-04-21T03:56:10.649Z,41.57
2023-04-21T03:58:37.898Z,37.97
2023-04-21T04:01:08.157Z,35.57
2023-04-21T04:03:35.667Z,29.90
2023-04-21T04:06:04.145Z,33.03
2023-04-21T04:08:31.411Z,28.37
2023-04-21T04:10:58.567Z,29.47
2023-04-21T04:13:26.607Z,31.50
2023-04-21T04:15:54.017Z,32.20
2023-04-21T04:18:21.414Z,38.40
2023-04-21T04:20:48.537Z,34.43
2023-04-21T04:23:15.993Z,38.63
2023-04-21T04:25:43.379Z,37.90
2023-04-21T04:28:10.577Z,42.40
2023-04-21T04:30:37.778Z,39.93
2023-04-21T04:33:05.669Z,45.70
2023-04-21T04:35:32.858Z,45.90
2023-04-21T04:38:00.287Z,55.47
2023-04-21T04:40:28.727Z,42.07
2023-04-21T04:42:55.842Z,49.77
2023-04-21T04:45:22.996Z,44.67
2023-04-21T04:47:50.581Z,48.37
2023-04-21T04:50:17.765Z,44.70
2023-04-21T04:52:46.994Z,51.17
2023-04-21T04:55:14.515Z,55.00
2023-04-21T04:57:41.756Z,53.37
2023-04-21T05:00:11.512Z,47.03
2023-04-21T05:02:39.278Z,56.10
2023-04-21T05:05:07.359Z,57.73
2023-04-21T05:07:34.828Z,56.07
2023-04-21T05:10:04.172Z,58.33
2023-04-21T05:12:34.433Z,63.00
2023-04-21T05:15:01.549Z,64.77
2023-04-21T05:17:31.076Z,63.00
2023-04-21T05:19:58.377Z,55.90
2023-04-21T05:22:26.089Z,50.37
2023-04-21T05:24:53.633Z,52.13
2023-04-21T05:27:21.042Z,54.83
2023-04-21T05:29:48.164Z,57.87
2023-04-21T05:32:15.518Z,57.30
2023-04-21T05:34:42.681Z,54.97
2023-04-21T05:37:12.156Z,56.10
2023-04-21T05:39:39.380Z,58.60
2023-04-21T05:42:06.736Z,57.53
2023-04-21T05:44:33.867Z,51.10
2023-04-21T05:47:01.002Z,54.00
2023-04-21T05:49:28.149Z,38.72
2023-04-21T05:51:55.362Z,40.47
2023-04-21T05:54:22.492Z,33.30
2023-04-21T05:56:49.635Z,31.50
2023-04-21T05:59:16.760Z,25.42
2023-04-21T06:01:44.200Z,25.65
2023-04-21T06:04:11.571Z,24.95
2023-04-21T06:06:39.003Z,29.10
2023-04-21T06:09:07.910Z,26.52
2023-04-21T06:11:35.180Z,17.95
2023-04-21T06:14:02.330Z,19.08
2023-04-21T06:16:32.429Z,28.60
2023-04-21T06:18:59.642Z,24.80
2023-04-21T06:21:26.867Z,28.27
2023-04-21T06:23:53.998Z,31.48
2023-04-21T06:26:21.167Z,24.80
2023-04-21T06:28:48.385Z,28.45
2023-04-21T06:31:15.838Z,26.60
2023-04-21T06:33:43.145Z,22.05
2023-04-21T06:36:10.620Z,20.20
2023-04-21T06:38:39.997Z,24.63
2023-04-21T06:41:07.224Z,17.50
2023-04-21T06:43:34.339Z,16.98
2023-04-21T06:46:01.472Z,25.42
2023-04-21T06:48:29.937Z,25.58
2023-04-21T06:50:57.063Z,17.08
2023-04-21T06:53:24.207Z,16.92
2023-04-21T06:55:52.363Z,14.18
2023-04-21T06:58:21.141Z,12.32
2023-04-21T07:00:48.731Z,16.35
2023-04-21T07:03:16.062Z,17.00
2023-04-21T07:05:43.305Z,21.83
2023-04-21T07:08:10.541Z,15.60
2023-04-21T07:10:37.690Z,12.77
2023-04-21T07:13:04.913Z,14.88
2023-04-21T07:15:32.174Z,24.58
2023-04-21T07:17:59.322Z,42.53
2023-04-21T07:20:26.594Z,12.90
2023-04-21T07:22:53.806Z,15.65
2023-04-21T07:25:20.989Z,11.32
2023-04-21T07:27:48.107Z,7.95
2023-04-21T07:30:15.525Z,12.07
2023-04-21T07:32:43.003Z,12.05
2023-04-21T07:35:10.295Z,17.25
2023-04-21T07:37:37.468Z,11.25
2023-04-21T07:40:04.760Z,16.45
2023-04-21T07:42:31.887Z,10.35
2023-04-21T07:45:01.145Z,13.70
2023-04-21T07:47:28.361Z,18.02
2023-04-21T07:49:55.906Z,9.80
2023-04-21T07:52:23.084Z,35.92
2023-04-21T07:54:50.793Z,104.80
2023-04-21T07:57:17.952Z,19.50
2023-04-21T07:59:45.143Z,13.88
2023-04-21T08:02:12.303Z,10.02
2023-04-21T08:04:39.728Z,14.52
2023-04-21T08:07:07.095Z,14.80
2023-04-21T08:09:34.263Z,15.55
2023-04-21T08:12:02.274Z,13.27
2023-04-21T08:14:29.430Z,15.52
2023-04-21T08:16:57.176Z,11.05
2023-04-21T08:19:24.632Z,9.85
2023-04-21T08:21:51.850Z,17.88
2023-04-21T08:24:19.553Z,15.80
2023-04-21T08:26:46.994Z,11.48
2023-04-21T08:29:14.226Z,15.25
2023-04-21T08:31:41.505Z,10.93
2023-04-21T08:34:08.770Z,16.98
2023-04-21T08:36:36.044Z,10.18
2023-04-21T08:39:03.285Z,13.70
2023-04-21T08:41:30.652Z,12.18
2023-04-21T08:43:57.927Z,13.02
2023-04-21T08:46:25.249Z,10.75
2023-04-21T08:48:53.742Z,14.48
2023-04-21T08:51:23.851Z,9.02
2023-04-21T08:53:51.924Z,8.55
2023-04-21T08:56:19.209Z,10.23
2023-04-21T08:58:46.322Z,9.05
2023-04-21T09:01:13.522Z,6.90
2023-04-21T09:03:40.929Z,12.73
2023-04-21T09:06:09.745Z,12.32
2023-04-21T09:08:42.885Z,11.20
2023-04-21T09:11:10.184Z,10.00
2023-04-21T09:13:37.412Z,12.63
2023-04-21T09:16:08.186Z,10.43
2023-04-21T09:18:36.825Z,12.88
2023-04-21T09:21:07.919Z,12.85
2023-04-21T09:23:44.659Z,13.35
2023-04-21T09:26:11.868Z,13.10
2023-04-21T09:28:41.851Z,6.35
2023-04-21T09:31:21.745Z,9.23
2023-04-21T09:36:21.110Z,5.60
2023-04-21T09:39:20.559Z,5.95
2023-04-21T09:41:44.842Z,8.02
2023-04-21T09:44:12.037Z,9.18
2023-04-21T09:46:39.404Z,6.82
2023-04-21T09:49:06.964Z,8.35
2023-04-21T09:51:55.641Z,24.50
2023-04-21T09:56:53.727Z,9.20
2023-04-21T09:59:23.736Z,7.35
2023-04-21T10:01:50.950Z,9.05
2023-04-21T10:04:18.386Z,6.53
2023-04-21T10:06:46.251Z,8.32
2023-04-21T10:09:13.429Z,9.93
2023-04-21T10:11:41.066Z,7.80
2023-04-21T10:14:08.161Z,9.00
2023-04-21T10:16:38.176Z,9.18
2023-04-21T10:19:25.021Z,10.00
2023-04-21T10:21:52.151Z,8.82
2023-04-21T10:24:19.596Z,9.15
2023-04-21T10:26:47.602Z,12.60
2023-04-21T10:29:16.197Z,9.88
2023-04-21T10:31:52.876Z,10.25
2023-04-21T10:34:21.090Z,8.63
2023-04-21T10:37:00.148Z,13.40
2023-04-21T10:39:36.358Z,9.80
2023-04-21T10:42:24.474Z,11.60
2023-04-21T10:44:53.530Z,9.38
2023-04-21T10:47:34.511Z,12.63
2023-04-21T10:50:02.078Z,13.20
2023-04-21T10:52:35.965Z,7.82
2023-04-21T10:55:03.938Z,9.13
2023-04-21T10:57:34.531Z,9.23
2023-04-21T11:00:01.765Z,9.40
2023-04-21T11:02:29.029Z,20.75
2023-04-21T11:04:56.696Z,12.82
2023-04-21T11:07:24.392Z,12.98
2023-04-21T11:10:11.240Z,13.27
2023-04-21T11:12:38.962Z,12.88
2023-04-21T11:15:09.841Z,10.75
2023-04-21T11:17:39.241Z,12.15
2023-04-21T11:20:06.925Z,11.02
2023-04-21T11:22:34.266Z,14.63
2023-04-21T11:25:01.604Z,9.52
2023-04-21T11:27:29.482Z,7.70
2023-04-21T11:29:57.310Z,10.55
2023-04-21T11:32:24.556Z,9.05
2023-04-21T11:34:51.734Z,7.55
2023-04-21T11:37:27.040Z,7.97
2023-04-21T11:39:57.837Z,13.27
2023-04-21T11:42:25.011Z,6.13
2023-04-21T11:44:54.183Z,5.85
2023-04-21T11:47:22.076Z,5.82
2023-04-21T11:49:50.609Z,9.85
2023-04-21T11:52:21.592Z,16.15
2023-04-21T11:54:48.812Z,10.77
2023-04-21T11:57:19.141Z,7.78
2023-04-21T11:59:49.836Z,8.70
2023-04-21T12:02:27.325Z,12.70
2023-04-21T12:04:58.292Z,16.65
2023-04-21T12:07:25.654Z,17.90
2023-04-21T12:09:53.085Z,17.75
2023-04-21T12:12:20.297Z,20.33
2023-04-21T12:14:47.415Z,18.95
2023-04-21T12:17:14.829Z,9.45
2023-04-21T12:19:42.358Z,14.75
2023-04-21T12:22:13.178Z,8.77
2023-04-21T12:24:40.321Z,6.90
2023-04-21T12:27:07.782Z,8.50
2023-04-21T12:29:38.649Z,9.05
2023-04-21T12:32:06.763Z,10.02
2023-04-21T12:34:34.169Z,6.95
2023-04-21T12:37:01.302Z,11.07
2023-04-21T12:39:29.390Z,8.05
2023-04-21T12:41:57.721Z,10.75
2023-04-21T12:44:25.241Z,11.75
2023-04-21T12:46:52.839Z,10.70
2023-04-21T12:49:20.210Z,7.22
2023-04-21T12:51:47.409Z,8.35
2023-04-21T12:54:15.356Z,7.30
2023-04-21T12:56:43.154Z,8.13
2023-04-21T12:59:10.638Z,9.63
2023-04-21T13:01:38.227Z,12.85
2023-04-21T13:04:05.912Z,7.57
2023-04-21T13:06:33.768Z,24.75
2023-04-21T13:09:01.783Z,10.75
2023-04-21T13:11:28.999Z,7.35
2023-04-21T13:13:56.126Z,5.28
2023-04-21T13:16:23.319Z,10.63
2023-04-21T13:18:50.556Z,7.70
2023-04-21T13:21:17.699Z,4.20
2023-04-21T13:23:44.845Z,13.27
2023-04-21T13:26:12.024Z,10.75
2023-04-21T13:28:39.186Z,10.27
2023-04-21T13:31:07.177Z,6.95
2023-04-21T13:33:35.300Z,24.27
2023-04-21T13:36:03.324Z,6.25
2023-04-21T13:38:30.713Z,6.63
2023-04-21T13:40:57.940Z,10.20
2023-04-21T13:43:25.143Z,7.43
2023-04-21T13:45:52.473Z,8.55
2023-04-21T13:48:20.462Z,6.10
2023-04-21T13:50:47.796Z,8.10
2023-04-21T13:53:16.893Z,6.50
2023-04-21T13:55:45.341Z,5.57
2023-04-21T13:58:12.522Z,12.35
2023-04-21T14:00:39.755Z,7.90
2023-04-21T14:03:07.157Z,9.82
2023-04-21T14:05:34.593Z,9.10
2023-04-21T14:08:01.916Z,8.35
2023-04-21T14:10:29.103Z,17.27
2023-04-21T14:12:56.259Z,21.70
2023-04-21T14:15:23.439Z,17.35
2023-04-21T14:17:50.913Z,8.55
2023-04-21T14:20:18.118Z,7.28
2023-04-21T14:22:45.320Z,6.97
2023-04-21T14:25:12.505Z,5.57
2023-04-21T14:27:39.616Z,8.63
2023-04-21T14:30:07.120Z,15.93
2023-04-21T14:32:34.326Z,9.98
2023-04-21T14:35:03.442Z,8.52
2023-04-21T14:37:30.777Z,28.63
2023-04-21T14:39:57.976Z,11.25
2023-04-21T14:42:25.447Z,10.15
2023-04-21T14:44:52.732Z,9.02
2023-04-21T14:47:19.931Z,14.88
2023-04-21T14:49:47.294Z,5.30
2023-04-21T14:52:14.429Z,4.10
2023-04-21T14:54:41.717Z,6.72
2023-04-21T14:57:19.588Z,8.27
2023-04-21T14:59:51.561Z,6.95
2023-04-21T15:02:19.340Z,7.78
2023-04-21T15:04:46.729Z,9.50
2023-04-21T15:07:14.165Z,14.77
2023-04-21T15:09:45.628Z,7.70
2023-04-21T15:12:13.514Z,11.38
2023-04-21T15:14:40.868Z,10.82
2023-04-21T15:17:08.064Z,10.35
2023-04-21T15:19:35.584Z,12.05
2023-04-21T15:22:04.752Z,9.77
2023-04-21T15:24:31.878Z,11.52
2023-04-21T15:26:59.049Z,8.40
2023-04-21T15:29:26.273Z,5.15
2023-04-21T15:31:53.395Z,8.68
2023-04-21T15:34:20.643Z,6.18
2023-04-21T15:36:47.801Z,11.98
2023-04-21T15:39:14.981Z,8.27
2023-04-21T15:41:42.173Z,8.38
2023-04-21T15:44:09.306Z,20.48
2023-04-21T15:46:36.618Z,42.53
2023-04-21T15:49:03.840Z,24.98
2023-04-21T15:51:34.561Z,15.82
2023-04-21T15:54:01.740Z,19.42
2023-04-21T15:56:29.005Z,11.73
2023-04-21T15:58:56.824Z,7.93
2023-04-21T16:01:24.042Z,8.63
2023-04-21T16:03:51.662Z,7.10
2023-04-21T16:06:20.836Z,12.90
2023-04-21T16:08:48.099Z,10.02
2023-04-21T16:11:15.342Z,10.13
2023-04-21T16:13:42.472Z,8.73
2023-04-21T16:16:09.715Z,5.40
2023-04-21T16:18:36.980Z,7.35
2023-04-21T16:21:04.261Z,7.90
2023-04-21T16:23:31.566Z,7.07
2023-04-21T16:25:59.025Z,12.32
2023-04-21T16:28:26.149Z,6.65
2023-04-21T16:30:53.292Z,9.50
2023-04-21T16:33:20.774Z,6.22
2023-04-21T16:35:47.991Z,16.45
2023-04-21T16:38:15.216Z,13.85
2023-04-21T16:40:42.321Z,4.93
2023-04-21T16:43:09.462Z,6.03
2023-04-21T16:45:36.606Z,9.13
2023-04-21T16:48:03.992Z,7.38
2023-04-21T16:50:31.366Z,7.80
2023-04-21T16:52:58.491Z,14.75
2023-04-21T16:55:25.963Z,38.03
2023-04-21T16:57:53.088Z,12.63
2023-04-21T17:00:20.395Z,13.98
2023-04-21T17:02:47.646Z,16.83
2023-04-21T17:05:16.357Z,11.30
2023-04-21T17:07:44.954Z,11.68
2023-04-21T17:10:12.158Z,8.32
2023-04-21T17:12:39.422Z,6.80
2023-04-21T17:15:07.421Z,9.25
2023-04-21T17:17:42.414Z,9.38
2023-04-21T17:20:12.667Z,10.75
2023-04-21T17:22:40.104Z,6.90
2023-04-21T17:25:07.826Z,6.43
2023-04-21T17:27:36.021Z,24.73
2023-04-21T17:30:03.894Z,8.45
2023-04-21T17:32:33.425Z,17.55
2023-04-21T17:35:01.253Z,20.77
2023-04-21T17:37:29.540Z,14.75
2023-04-21T17:39:57.374Z,22.35
2023-04-21T17:42:25.786Z,38.33
2023-04-21T17:44:52.891Z,35.30
2023-04-21T17:47:20.036Z,37.60
2023-04-21T17:49:47.144Z,36.83
2023-04-21T17:52:16.252Z,44.22
2023-04-21T17:54:44.192Z,60.35
2023-04-21T17:57:11.928Z,53.10
2023-04-21T17:59:39.589Z,55.40
2023-04-21T18:02:06.793Z,53.50
2023-04-21T18:04:34.629Z,41.47
2023-04-21T18:07:02.127Z,40.30
2023-04-21T18:09:29.308Z,38.58
2023-04-21T18:11:57.030Z,37.38
2023-04-21T18:14:24.712Z,37.08
2023-04-21T18:16:51.903Z,35.88
2023-04-21T18:19:19.237Z,37.00
2023-04-21T18:21:46.471Z,37.83
2023-04-21T18:24:13.603Z,33.38
2023-04-21T18:26:40.761Z,35.47
2023-04-21T18:29:07.927Z,37.97
2023-04-21T18:31:35.134Z,35.15
2023-04-21T18:34:02.278Z,61.40
2023-04-21T18:36:32.337Z,48.95
2023-04-21T18:39:00.400Z,32.83
2023-04-21T18:41:27.823Z,38.90
2023-04-21T18:43:55.201Z,41.35
2023-04-21T18:46:22.430Z,42.95
2023-04-21T18:48:49.640Z,39.67
2023-04-21T18:51:16.778Z,56.45
2023-04-21T18:53:46.156Z,65.57
2023-04-21T18:56:13.292Z,50.45
2023-04-21T18:58:40.472Z,45.97
2023-04-21T19:01:08.037Z,36.20
2023-04-21T19:03:35.527Z,33.35
2023-04-21T19:06:02.932Z,30.13
2023-04-21T19:08:41.464Z,29.10
2023-04-21T19:11:10.301Z,26.85
2023-04-21T19:13:37.498Z,28.05
2023-04-21T19:16:05.187Z,31.38
2023-04-21T19:18:32.540Z,26.70
2023-04-21T19:20:59.696Z,33.28
2023-04-21T19:23:26.810Z,38.42
2023-04-21T19:25:56.127Z,35.72
2023-04-21T19:28:23.449Z,37.35
2023-04-21T19:30:50.669Z,32.80
2023-04-21T19:33:18.045Z,30.38
2023-04-21T19:35:45.689Z,30.55
2023-04-21T19:38:12.827Z,26.88
2023-04-21T19:40:42.152Z,28.02
2023-04-21T19:43:09.436Z,27.63
2023-04-21T19:45:37.560Z,25.65
2023-04-21T19:48:05.204Z,30.13
2023-04-21T19:50:34.739Z,33.13
2023-04-21T19:53:02.223Z,21.88
2023-04-21T19:55:29.390Z,24.67
2023-04-21T19:57:57.653Z,29.50
2023-04-21T20:00:25.133Z,28.80
2023-04-21T20:02:52.471Z,27.40
2023-04-21T20:05:19.856Z,32.25
2023-04-21T20:07:47.021Z,30.92
2023-04-21T20:10:14.183Z,30.88
2023-04-21T20:12:41.322Z,30.65
2023-04-21T20:15:08.754Z,31.40
2023-04-21T20:17:36.888Z,31.75
2023-04-21T20:20:05.659Z,31.02
2023-04-21T20:22:32.765Z,28.45
2023-04-21T20:24:59.919Z,28.48
2023-04-21T20:27:27.324Z,28.85
2023-04-21T20:29:54.451Z,34.33
2023-04-21T20:32:21.588Z,34.58
2023-04-21T20:34:48.715Z,32.75
2023-04-21T20:37:16.138Z,34.65
2023-04-21T20:39:43.246Z,36.92
2023-04-21T20:42:13.410Z,29.55
2023-04-21T20:44:42.463Z,30.83
2023-04-21T20:47:09.937Z,29.13
2023-04-21T20:49:37.487Z,27.15
2023-04-21T20:52:04.945Z,27.75
2023-04-21T20:54:34.481Z,28.13
2023-04-21T20:57:02.025Z,31.60
2023-04-21T20:59:29.159Z,32.58
2023-04-21T21:01:56.351Z,37.05
2023-04-21T21:04:23.810Z,31.08
2023-04-21T21:06:51.061Z,33.90
2023-04-21T21:09:19.029Z,29.50
2023-04-21T21:11:46.281Z,31.33
2023-04-21T21:14:13.502Z,33.17
2023-04-21T21:16:40.767Z,38.30
2023-04-21T21:19:07.971Z,34.53
2023-04-21T21:21:35.107Z,29.85
2023-04-21T21:24:02.277Z,29.40
2023-04-21T21:26:29.817Z,33.22
2023-04-21T21:28:57.201Z,30.23
2023-04-21T21:31:25.651Z,30.05
2023-04-21T21:33:52.941Z,31.83
2023-04-21T21:36:20.106Z,35.80
2023-04-21T21:38:47.197Z,31.98
2023-04-21T21:41:14.821Z,36.83
2023-04-21T21:43:41.945Z,36.20
2023-04-21T21:46:09.228Z,29.70
2023-04-21T21:48:36.411Z,31.33
2023-04-21T21:51:05.282Z,32.57
2023-04-21T21:53:32.785Z,40.73
2023-04-21T21:56:00.038Z,39.80
2023-04-21T21:58:27.384Z,38.70
2023-04-21T22:00:54.508Z,35.87
2023-04-21T22:03:22.041Z,55.70
2023-04-21T22:05:49.415Z,65.13
2023-04-21T22:08:16.617Z,43.80
2023-04-21T22:10:43.988Z,41.90
2023-04-21T22:13:11.145Z,42.93
2023-04-21T22:15:38.831Z,48.03
2023-04-21T22:18:07.167Z,44.47
2023-04-21T22:20:34.471Z,50.50
2023-04-21T22:23:01.613Z,55.60
2023-04-21T22:25:28.843Z,52.63
2023-04-21T22:27:59.027Z,52.23
2023-04-21T22:30:26.180Z,51.80
2023-04-21T22:32:53.457Z,55.63
2023-04-21T22:35:20.853Z,54.90
2023-04-21T22:37:48.018Z,48.97
2023-04-21T22:40:15.407Z,49.17
2023-04-21T22:42:42.893Z,46.47
2023-04-21T22:45:10.189Z,44.70
2023-04-21T22:47:37.421Z,45.17
2023-04-21T22:50:04.943Z,43.13
2023-04-21T22:52:32.146Z,45.70
2023-04-21T22:54:59.296Z,48.23
2023-04-21T22:57:26.937Z,45.93
2023-04-21T22:59:54.046Z,45.50
2023-04-21T23:02:21.662Z,47.20
2023-04-21T23:04:48.921Z,45.73
2023-04-21T23:07:16.060Z,45.90
2023-04-21T23:09:43.281Z,51.53
2023-04-21T23:12:10.377Z,61.93
2023-04-21T23:14:37.480Z,45.60
2023-04-21T23:17:04.753Z,47.07
2023-04-21T23:19:31.943Z,51.57
2023-04-21T23:21:59.030Z,56.83
2023-04-21T23:24:26.150Z,60.73
2023-04-21T23:26:53.274Z,63.47
2023-04-21T23:29:20.456Z,48.53
2023-04-21T23:31:47.673Z,54.13
2023-04-21T23:34:15.342Z,54.37
2023-04-21T23:36:43.593Z,51.20
2023-04-21T23:39:11.423Z,45.33
2023-04-21T23:41:38.596Z,43.33
2023-04-21T23:44:06.258Z,49.10
2023-04-21T23:46:33.466Z,43.77
2023-04-21T23:49:00.621Z,42.87
2023-04-21T23:51:28.222Z,47.37
2023-04-21T23:53:55.741Z,39.80
2023-04-21T23:56:22.887Z,41.20
2023-04-21T23:58:50.047Z,40.93
